AMX921 MMMY-MMNL
Flight info
| Callsign | AMX921 |
|---|---|
| Flight time | 0h 29m |
| Altitude | 19000 |
| Route | DAJOR1A DAJOR DCT ILIGO ILIGO1A |
| Aircraft | B38M/M-SDE1FGHILORVWXY/HB1 |
Departure
| Time | 2026-05-08 06:25 |
|---|---|
| Airport | Monterrey International Airport (MMMY) |
Arrival
| Time | 2026-05-08 06:54 |
|---|---|
| Airport | Quetzalcóatl International Airport (MMNL) |
| Time | Latitude | Longitude | Altitude | Speed | Heading |
|---|---|---|---|---|---|
| 2026-05-08 06:25 | 25.69872 | -99.97864 | 8862 ft | 254 kts | 160° |
| 2026-05-08 06:25 | 25.68093 | -99.97619 | 9780 ft | 259 kts | 187° |
| 2026-05-08 06:25 | 25.66372 | -99.98294 | 10339 ft | 276 kts | 213° |
| 2026-05-08 06:26 | 25.65062 | -99.99878 | 11070 ft | 285 kts | 243° |
| 2026-05-08 06:26 | 25.64648 | -100.02004 | 12006 ft | 290 kts | 270° |
| 2026-05-08 06:26 | 25.65081 | -100.04242 | 12652 ft | 301 kts | 284° |
| 2026-05-08 06:26 | 25.65556 | -100.06496 | 13606 ft | 301 kts | 280° |
| 2026-05-08 06:27 | 25.66014 | -100.08805 | 14193 ft | 315 kts | 280° |
| 2026-05-08 06:27 | 25.66510 | -100.11248 | 14569 ft | 332 kts | 281° |
| 2026-05-08 06:27 | 25.67044 | -100.13789 | 15101 ft | 343 kts | 281° |
| 2026-05-08 06:27 | 25.67633 | -100.16357 | 15956 ft | 345 kts | 286° |
| 2026-05-08 06:28 | 25.68618 | -100.18806 | 16726 ft | 349 kts | 291° |
| 2026-05-08 06:28 | 25.69651 | -100.21258 | 17466 ft | 352 kts | 290° |
| 2026-05-08 06:28 | 25.70692 | -100.23727 | 18221 ft | 355 kts | 290° |
| 2026-05-08 06:28 | 25.71742 | -100.26213 | 18853 ft | 358 kts | 290° |
| 2026-05-08 06:29 | 25.72801 | -100.28719 | 19446 ft | 360 kts | 290° |
| 2026-05-08 06:29 | 25.73875 | -100.31262 | 19844 ft | 371 kts | 290° |
| 2026-05-08 06:29 | 25.74949 | -100.33813 | 19881 ft | 390 kts | 290° |
| 2026-05-08 06:29 | 25.76006 | -100.36320 | 19894 ft | 408 kts | 290° |
| 2026-05-08 06:30 | 25.77552 | -100.39072 | 19903 ft | 436 kts | 306° |
| 2026-05-08 06:30 | 25.79926 | -100.41319 | 19898 ft | 465 kts | 324° |
| 2026-05-08 06:30 | 25.82991 | -100.42717 | 19935 ft | 492 kts | 342° |
| 2026-05-08 06:30 | 25.86440 | -100.42979 | 20031 ft | 501 kts | 2° |
| 2026-05-08 06:31 | 25.89777 | -100.41970 | 20171 ft | 496 kts | 19° |
| 2026-05-08 06:31 | 25.92988 | -100.40697 | 20114 ft | 485 kts | 15° |
| 2026-05-08 06:31 | 25.96013 | -100.39069 | 20060 ft | 485 kts | 32° |
| 2026-05-08 06:31 | 25.98816 | -100.37021 | 20060 ft | 479 kts | 30° |
| 2026-05-08 06:32 | 26.01628 | -100.35080 | 20055 ft | 473 kts | 29° |
| 2026-05-08 06:32 | 26.04428 | -100.33175 | 20053 ft | 470 kts | 29° |
| 2026-05-08 06:32 | 26.07208 | -100.31297 | 20039 ft | 466 kts | 28° |
| 2026-05-08 06:32 | 26.09968 | -100.29437 | 20034 ft | 462 kts | 29° |
| 2026-05-08 06:33 | 26.12510 | -100.27269 | 20024 ft | 461 kts | 45° |
| 2026-05-08 06:33 | 26.14448 | -100.24450 | 20031 ft | 458 kts | 57° |
| 2026-05-08 06:33 | 26.16168 | -100.21482 | 20027 ft | 455 kts | 57° |
| 2026-05-08 06:33 | 26.17854 | -100.18522 | 20019 ft | 452 kts | 58° |
| 2026-05-08 06:34 | 26.19518 | -100.15560 | 20011 ft | 450 kts | 58° |
| 2026-05-08 06:34 | 26.21161 | -100.12610 | 20010 ft | 448 kts | 58° |
| 2026-05-08 06:34 | 26.22796 | -100.09664 | 20003 ft | 447 kts | 58° |
| 2026-05-08 06:34 | 26.24428 | -100.06721 | 19992 ft | 445 kts | 58° |
| 2026-05-08 06:35 | 26.26049 | -100.03798 | 20003 ft | 443 kts | 58° |
| 2026-05-08 06:35 | 26.27668 | -100.00874 | 19996 ft | 442 kts | 58° |
| 2026-05-08 06:35 | 26.29280 | -99.97962 | 19996 ft | 441 kts | 58° |
| 2026-05-08 06:35 | 26.30888 | -99.95054 | 19996 ft | 440 kts | 58° |
| 2026-05-08 06:36 | 26.32489 | -99.92157 | 19997 ft | 438 kts | 58° |
| 2026-05-08 06:36 | 26.34085 | -99.89267 | 19995 ft | 437 kts | 58° |
| 2026-05-08 06:36 | 26.35677 | -99.86385 | 19992 ft | 436 kts | 58° |
| 2026-05-08 06:36 | 26.37264 | -99.83507 | 19990 ft | 435 kts | 58° |
| 2026-05-08 06:37 | 26.38852 | -99.80627 | 19993 ft | 434 kts | 58° |
| 2026-05-08 06:37 | 26.40112 | -99.78340 | 19988 ft | 434 kts | 58° |
| 2026-05-08 06:37 | 26.41315 | -99.76157 | 19990 ft | 433 kts | 58° |
| 2026-05-08 06:37 | 26.42899 | -99.73278 | 19991 ft | 433 kts | 58° |
| 2026-05-08 06:38 | 26.44451 | -99.70457 | 19984 ft | 432 kts | 58° |
| 2026-05-08 06:38 | 26.46023 | -99.67598 | 19985 ft | 432 kts | 58° |
| 2026-05-08 06:38 | 26.47705 | -99.64834 | 19976 ft | 430 kts | 46° |
| 2026-05-08 06:38 | 26.49944 | -99.62679 | 19984 ft | 423 kts | 28° |
| 2026-05-08 06:39 | 26.52577 | -99.61315 | 19994 ft | 415 kts | 15° |
| 2026-05-08 06:39 | 26.55307 | -99.60258 | 19994 ft | 414 kts | 14° |
| 2026-05-08 06:39 | 26.58049 | -99.59274 | 19988 ft | 414 kts | 12° |
| 2026-05-08 06:39 | 26.60818 | -99.58471 | 19976 ft | 408 kts | 2° |
| 2026-05-08 06:40 | 26.63629 | -99.58119 | 19988 ft | 406 kts | 1° |
| 2026-05-08 06:40 | 26.66435 | -99.57770 | 19983 ft | 406 kts | 0° |
| 2026-05-08 06:40 | 26.69248 | -99.57430 | 19982 ft | 406 kts | 0° |
| 2026-05-08 06:40 | 26.72055 | -99.57096 | 19983 ft | 405 kts | 0° |
| 2026-05-08 06:41 | 26.74861 | -99.56764 | 19983 ft | 405 kts | 0° |
| 2026-05-08 06:41 | 26.77665 | -99.56431 | 19985 ft | 405 kts | 0° |
| 2026-05-08 06:41 | 26.80225 | -99.56128 | 19989 ft | 405 kts | 0° |
| 2026-05-08 06:41 | 26.82538 | -99.55853 | 19991 ft | 401 kts | 0° |
| 2026-05-08 06:42 | 26.85262 | -99.55530 | 19995 ft | 387 kts | 0° |
| 2026-05-08 06:42 | 26.87888 | -99.55219 | 20002 ft | 373 kts | 360° |
| 2026-05-08 06:42 | 26.90419 | -99.54918 | 20002 ft | 359 kts | 359° |
| 2026-05-08 06:42 | 26.92852 | -99.54629 | 20002 ft | 345 kts | 359° |
| 2026-05-08 06:43 | 26.95235 | -99.54347 | 19594 ft | 347 kts | 359° |
| 2026-05-08 06:43 | 26.97699 | -99.54057 | 18594 ft | 369 kts | 0° |
| 2026-05-08 06:43 | 27.00329 | -99.53747 | 17473 ft | 391 kts | 1° |
| 2026-05-08 06:43 | 27.03045 | -99.53738 | 16367 ft | 400 kts | 346° |
| 2026-05-08 06:44 | 27.04993 | -99.54160 | 15655 ft | 408 kts | 345° |
| 2026-05-08 06:44 | 27.07847 | -99.54769 | 14622 ft | 420 kts | 346° |
| 2026-05-08 06:44 | 27.10750 | -99.55397 | 13680 ft | 428 kts | 347° |
| 2026-05-08 06:44 | 27.13672 | -99.56038 | 12837 ft | 425 kts | 347° |
| 2026-05-08 06:45 | 27.16560 | -99.56675 | 12106 ft | 421 kts | 347° |
| 2026-05-08 06:45 | 27.19421 | -99.57308 | 11384 ft | 418 kts | 347° |
| 2026-05-08 06:45 | 27.22267 | -99.57938 | 10680 ft | 415 kts | 348° |
| 2026-05-08 06:45 | 27.25094 | -99.58563 | 9990 ft | 413 kts | 348° |
| 2026-05-08 06:46 | 27.27909 | -99.59187 | 9245 ft | 411 kts | 349° |
| 2026-05-08 06:46 | 27.30672 | -99.59800 | 8509 ft | 399 kts | 349° |
| 2026-05-08 06:46 | 27.33257 | -99.60762 | 7767 ft | 388 kts | 332° |
| 2026-05-08 06:46 | 27.35574 | -99.62245 | 7068 ft | 378 kts | 330° |
| 2026-05-08 06:47 | 27.37853 | -99.63675 | 6356 ft | 371 kts | 331° |
| 2026-05-08 06:47 | 27.40089 | -99.65073 | 5614 ft | 365 kts | 331° |
| 2026-05-08 06:47 | 27.42289 | -99.66448 | 4878 ft | 359 kts | 331° |
| 2026-05-08 06:47 | 27.44459 | -99.67804 | 4252 ft | 351 kts | 330° |
| 2026-05-08 06:48 | 27.46496 | -99.69078 | 4156 ft | 327 kts | 330° |
| 2026-05-08 06:48 | 27.48335 | -99.70227 | 4146 ft | 303 kts | 331° |
| 2026-05-08 06:48 | 27.50015 | -99.71279 | 4126 ft | 282 kts | 331° |
| 2026-05-08 06:48 | 27.51709 | -99.72253 | 4080 ft | 267 kts | 343° |
| 2026-05-08 06:49 | 27.53482 | -99.72356 | 4023 ft | 247 kts | 16° |
| 2026-05-08 06:49 | 27.54900 | -99.71509 | 4025 ft | 220 kts | 45° |
| 2026-05-08 06:49 | 27.55790 | -99.70216 | 3921 ft | 201 kts | 60° |
| 2026-05-08 06:49 | 27.56515 | -99.68907 | 3701 ft | 193 kts | 62° |
| 2026-05-08 06:50 | 27.57193 | -99.67631 | 3461 ft | 185 kts | 64° |
| 2026-05-08 06:50 | 27.57465 | -99.66315 | 3124 ft | 166 kts | 102° |
| 2026-05-08 06:50 | 27.56985 | -99.65225 | 2741 ft | 151 kts | 137° |
| 2026-05-08 06:50 | 27.56262 | -99.64610 | 2486 ft | 140 kts | 145° |
| 2026-05-08 06:51 | 27.55608 | -99.64110 | 2237 ft | 141 kts | 146° |
| 2026-05-08 06:51 | 27.54778 | -99.63533 | 2041 ft | 138 kts | 148° |
| 2026-05-08 06:51 | 27.53969 | -99.63019 | 1901 ft | 128 kts | 149° |
| 2026-05-08 06:51 | 27.53229 | -99.62554 | 1721 ft | 124 kts | 148° |
| 2026-05-08 06:52 | 27.52357 | -99.61993 | 1573 ft | 154 kts | 149° |
| 2026-05-08 06:52 | 27.51568 | -99.61461 | 1828 ft | 130 kts | 147° |
| 2026-05-08 06:52 | 27.50687 | -99.60920 | 1420 ft | 151 kts | 150° |
| 2026-05-08 06:52 | 27.49772 | -99.60349 | 1290 ft | 152 kts | 148° |
| 2026-05-08 06:53 | 27.48857 | -99.59725 | 1188 ft | 153 kts | 147° |
| 2026-05-08 06:53 | 27.47896 | -99.59180 | 955 ft | 155 kts | 153° |
| 2026-05-08 06:53 | 27.46955 | -99.58636 | 728 ft | 153 kts | 148° |
| 2026-05-08 06:53 | 27.46042 | -99.58037 | 676 ft | 151 kts | 148° |
| 2026-05-08 06:54 | 27.45156 | -99.57503 | 521 ft | 134 kts | 148° |
| 2026-05-08 06:54 | 27.44483 | -99.57060 | 496 ft | 71 kts | 153° |
| 2026-05-08 06:54 | 27.44430 | -99.57032 | 490 ft | 13 kts | 131° |
| 2026-05-08 06:54 | 27.44527 | -99.57120 | 494 ft | 10 kts | 147° |
| 2026-05-08 06:55 | 27.44536 | -99.57126 | 492 ft | 3 kts | 146° |
| 2026-05-08 06:55 | 27.44545 | -99.57098 | 497 ft | 8 kts | 36° |
| 2026-05-08 06:55 | 27.44601 | -99.57088 | 493 ft | 16 kts | 360° |
| 2026-05-08 06:55 | 27.44745 | -99.57082 | 495 ft | 25 kts | 19° |
| 2026-05-08 06:56 | 27.44841 | -99.56940 | 498 ft | 20 kts | 60° |
| 2026-05-08 06:56 | 27.44918 | -99.56851 | 496 ft | 0 kts | 47° |
| 2026-05-08 06:56 | 27.44931 | -99.56839 | 494 ft | 0 kts | 33° |